createdAt,value
2018-07-11T00:00:38.199Z,100288.09
2018-07-11T00:02:43.583Z,100284.45
2018-07-11T00:04:48.977Z,100284.80
2018-07-11T00:06:55.551Z,100289.02
2018-07-11T00:09:00.867Z,100291.99
2018-07-11T00:11:06.157Z,100291.01
2018-07-11T00:13:11.503Z,100287.98
2018-07-11T00:15:17.332Z,100290.77
2018-07-11T00:17:22.522Z,100293.91
2018-07-11T00:19:27.909Z,100294.01
2018-07-11T00:21:33.260Z,100294.96
2018-07-11T00:23:38.765Z,100291.32
2018-07-11T00:25:44.098Z,100286.11
2018-07-11T00:27:49.391Z,100285.77
2018-07-11T00:29:55.996Z,100291.93
2018-07-11T00:32:01.362Z,100288.28
2018-07-11T00:34:06.720Z,100289.89
2018-07-11T00:36:12.120Z,100291.69
2018-07-11T00:38:17.473Z,100286.86
2018-07-11T00:40:22.866Z,100286.00
2018-07-11T00:42:27.864Z,100286.72
2018-07-11T00:44:33.262Z,100281.52
2018-07-11T00:46:38.621Z,100278.86
2018-07-11T00:48:44.048Z,100280.56
2018-07-11T00:50:50.023Z,100280.56
2018-07-11T00:52:55.528Z,100280.45
2018-07-11T00:55:00.851Z,100282.13
2018-07-11T00:57:06.245Z,100284.30
2018-07-11T00:59:21.526Z,100284.20
2018-07-11T01:01:26.899Z,100278.69
2018-07-11T01:03:32.386Z,100287.02
2018-07-11T01:05:37.827Z,100291.41
2018-07-11T01:07:44.100Z,100287.45
2018-07-11T01:09:50.748Z,100287.34
2018-07-11T01:11:56.164Z,100290.22
2018-07-11T01:14:01.497Z,100285.62
2018-07-11T01:16:07.208Z,100289.47
2018-07-11T01:18:13.727Z,100286.78
2018-07-11T01:20:19.074Z,100288.94
2018-07-11T01:22:24.375Z,100292.17
2018-07-11T01:24:30.792Z,100292.75
2018-07-11T01:26:37.181Z,100290.33
2018-07-11T01:28:42.520Z,100296.12
2018-07-11T01:30:47.848Z,100295.27
2018-07-11T01:32:53.216Z,100295.03
2018-07-11T01:34:58.187Z,100294.76
2018-07-11T01:37:03.528Z,100291.63
2018-07-11T01:39:08.810Z,100290.30
2018-07-11T01:41:14.397Z,100290.44
2018-07-11T01:43:19.759Z,100303.03
2018-07-11T01:45:25.075Z,100294.92
2018-07-11T01:47:30.497Z,100293.26
2018-07-11T01:49:35.900Z,100292.27
2018-07-11T01:53:49.771Z,100289.14
2018-07-11T01:55:55.957Z,100288.39
2018-07-11T01:58:01.830Z,100286.92
2018-07-11T02:00:07.235Z,100290.91
2018-07-11T02:02:12.653Z,100289.20
2018-07-11T02:04:18.038Z,100288.36
2018-07-11T02:06:23.410Z,100287.71
2018-07-11T02:08:28.787Z,100292.30
2018-07-11T02:10:34.154Z,100293.25
2018-07-11T02:12:40.459Z,100288.66
2018-07-11T02:14:49.844Z,100287.20
2018-07-11T02:16:56.427Z,100287.57
2018-07-11T02:19:01.858Z,100289.75
2018-07-11T02:21:07.767Z,100283.48
2018-07-11T02:23:13.121Z,100284.34
2018-07-11T02:25:19.037Z,100284.10
2018-07-11T02:27:24.391Z,100278.21
2018-07-11T02:29:29.756Z,100286.55
2018-07-11T02:31:35.216Z,100289.31
2018-07-11T02:33:40.557Z,100287.98
2018-07-11T02:35:45.928Z,100288.83
2018-07-11T02:37:51.437Z,100286.28
2018-07-11T02:39:56.844Z,100286.18
2018-07-11T02:42:02.185Z,100288.25
2018-07-11T02:44:07.626Z,100286.18
2018-07-11T02:46:13.077Z,100281.82
2018-07-11T02:48:18.411Z,100279.54
2018-07-11T02:50:23.943Z,100280.86
2018-07-11T02:52:29.486Z,100279.16
2018-07-11T02:54:34.980Z,100282.09
2018-07-11T02:56:40.381Z,100281.23
2018-07-11T02:58:46.053Z,100280.97
2018-07-11T03:00:51.403Z,100281.82
2018-07-11T03:02:56.716Z,100285.80
2018-07-11T03:05:02.092Z,100280.25
2018-07-11T03:07:08.622Z,100285.30
2018-07-11T03:09:13.940Z,100288.76
2018-07-11T03:11:19.254Z,100286.78
2018-07-11T03:13:24.588Z,100289.64
2018-07-11T03:15:30.145Z,100290.83
2018-07-11T03:17:35.543Z,100292.02
2018-07-11T03:19:40.956Z,100297.52
2018-07-11T03:21:46.355Z,100300.30
2018-07-11T03:23:51.684Z,100300.98
2018-07-11T03:25:57.010Z,100295.33
2018-07-11T03:28:02.419Z,100295.05
2018-07-11T03:30:07.880Z,100300.94
2018-07-11T03:32:13.223Z,100299.84
2018-07-11T03:34:18.594Z,100299.47
2018-07-11T03:36:23.924Z,100300.07
2018-07-11T03:38:29.609Z,100307.28
2018-07-11T03:40:35.048Z,100304.34
2018-07-11T03:42:40.336Z,100305.80
2018-07-11T03:44:45.739Z,100305.43
2018-07-11T03:46:51.093Z,100306.75
2018-07-11T03:48:56.474Z,100304.67
2018-07-11T03:51:02.023Z,100305.66
2018-07-11T03:53:07.389Z,100303.20
2018-07-11T03:55:12.852Z,100300.78
2018-07-11T03:57:18.140Z,100299.17
2018-07-11T03:59:23.417Z,100302.77
2018-07-11T04:01:28.765Z,100306.13
2018-07-11T04:03:33.766Z,100315.03
2018-07-11T04:05:39.029Z,100311.19
2018-07-11T04:07:44.501Z,100313.56
2018-07-11T04:09:49.812Z,100313.18
2018-07-11T04:11:56.159Z,100311.48
2018-07-11T04:14:01.536Z,100312.70
2018-07-11T04:16:06.959Z,100311.85
2018-07-11T04:18:17.547Z,100310.91
2018-07-11T04:20:22.925Z,100308.83
2018-07-11T04:22:28.276Z,100315.89
2018-07-11T04:24:33.567Z,100321.81
2018-07-11T04:26:39.036Z,100323.42
2018-07-11T04:28:44.669Z,100321.15
2018-07-11T04:30:50.121Z,100322.25
2018-07-11T04:32:56.203Z,100325.18
2018-07-11T04:35:01.555Z,100325.91
2018-07-11T04:37:07.060Z,100331.11
2018-07-11T04:39:12.426Z,100325.70
2018-07-11T04:41:17.801Z,100333.34
2018-07-11T04:43:25.420Z,100333.58
2018-07-11T04:45:30.785Z,100327.70
2018-07-11T04:47:36.328Z,100337.27
2018-07-11T04:49:41.719Z,100328.80
2018-07-11T04:51:47.451Z,100335.19
2018-07-11T04:53:54.295Z,100337.03
2018-07-11T04:56:02.639Z,100331.59
2018-07-11T04:58:08.200Z,100333.39
2018-07-11T05:00:13.536Z,100338.84
2018-07-11T05:02:19.091Z,100334.48
2018-07-11T05:04:24.480Z,100333.16
2018-07-11T05:06:29.794Z,100339.18
2018-07-11T05:08:35.060Z,100345.14
2018-07-11T05:10:40.381Z,100343.95
2018-07-11T05:12:45.708Z,100350.20
2018-07-11T05:14:51.107Z,100343.94
2018-07-11T05:16:56.440Z,100340.09
2018-07-11T05:19:01.752Z,100341.66
2018-07-11T05:21:07.107Z,100345.65
2018-07-11T05:23:12.576Z,100346.73
2018-07-11T05:25:17.912Z,100354.94
2018-07-11T05:27:23.255Z,100355.92
2018-07-11T05:29:28.551Z,100355.08
2018-07-11T05:31:33.858Z,100354.70
2018-07-11T05:33:39.172Z,100362.28
2018-07-11T05:35:44.499Z,100359.39
2018-07-11T05:37:49.879Z,100368.30
2018-07-11T05:39:56.462Z,100362.86
2018-07-11T05:42:01.921Z,100367.88
2018-07-11T05:44:07.261Z,100368.27
2018-07-11T05:46:12.758Z,100359.86
2018-07-11T05:48:18.238Z,100366.91
2018-07-11T05:50:23.551Z,100364.33
2018-07-11T05:52:29.146Z,100362.09
2018-07-11T05:54:35.056Z,100363.61
2018-07-11T05:56:40.427Z,100367.17
2018-07-11T05:58:45.950Z,100365.48
2018-07-11T06:00:51.001Z,100369.89
2018-07-11T06:02:56.295Z,100363.61
2018-07-11T06:05:01.684Z,100372.66
2018-07-11T06:07:07.104Z,100374.22
2018-07-11T06:09:12.628Z,100374.68
2018-07-11T06:11:24.321Z,100368.25
2018-07-11T06:13:29.773Z,100373.30
2018-07-11T06:15:35.228Z,100371.81
2018-07-11T06:17:40.643Z,100367.92
2018-07-11T06:19:45.961Z,100372.55
2018-07-11T06:21:51.869Z,100373.34
2018-07-11T06:23:57.398Z,100371.26
2018-07-11T06:26:02.811Z,100369.30
2018-07-11T06:28:08.282Z,100370.65
2018-07-11T06:30:13.577Z,100378.02
2018-07-11T06:32:18.932Z,100376.69
2018-07-11T06:34:24.310Z,100369.27
2018-07-11T06:36:29.798Z,100374.23
2018-07-11T06:38:35.123Z,100369.84
2018-07-11T06:40:40.500Z,100371.14
2018-07-11T06:42:45.892Z,100376.30
2018-07-11T06:44:51.331Z,100378.24
2018-07-11T06:46:56.650Z,100381.17
2018-07-11T06:49:01.739Z,100377.36
2018-07-11T06:51:07.036Z,100373.30
2018-07-11T06:53:12.377Z,100379.00
2018-07-11T06:55:17.673Z,100376.19
2018-07-11T06:57:22.993Z,100374.80
2018-07-11T06:59:28.475Z,100379.91
2018-07-11T07:01:33.457Z,100385.46
2018-07-11T07:03:38.800Z,100392.62
2018-07-11T07:05:44.671Z,100392.23
2018-07-11T07:07:50.079Z,100395.45
2018-07-11T07:09:56.223Z,100400.91
2018-07-11T07:12:01.519Z,100390.55
2018-07-11T07:14:07.096Z,100383.00
2018-07-11T07:16:12.443Z,100382.64
2018-07-11T07:18:17.839Z,100392.70
2018-07-11T07:20:23.189Z,100391.80
2018-07-11T07:22:28.565Z,100386.63
2018-07-11T07:24:33.964Z,100402.30
2018-07-11T07:26:39.303Z,100404.28
2018-07-11T07:28:44.756Z,100404.97
2018-07-11T07:30:50.283Z,100398.95
2018-07-11T07:32:56.656Z,100403.16
2018-07-11T07:35:02.030Z,100401.26
2018-07-11T07:37:07.432Z,100400.82
2018-07-11T07:39:13.552Z,100406.16
2018-07-11T07:41:18.856Z,100406.39
2018-07-11T07:43:25.362Z,100401.36
2018-07-11T07:45:30.699Z,100402.00
2018-07-11T07:47:41.179Z,100405.72
2018-07-11T07:49:46.965Z,100406.20
2018-07-11T07:51:52.029Z,100405.45
2018-07-11T07:53:57.372Z,100401.09
2018-07-11T07:56:02.979Z,100404.83
2018-07-11T07:58:08.366Z,100400.56
2018-07-11T08:00:13.801Z,100409.23
2018-07-11T08:02:19.978Z,100411.28
2018-07-11T08:04:25.371Z,100410.70
2018-07-11T08:06:30.785Z,100411.92
2018-07-11T08:08:36.116Z,100412.19
2018-07-11T08:10:41.546Z,100416.08
2018-07-11T08:12:46.931Z,100412.34
2018-07-11T08:14:52.264Z,100409.16
2018-07-11T08:16:57.621Z,100413.98
2018-07-11T08:19:02.934Z,100404.23
2018-07-11T08:21:08.338Z,100404.94
2018-07-11T08:23:45.503Z,100404.12
2018-07-11T08:27:09.884Z,100399.56
2018-07-11T08:29:23.238Z,100394.27
2018-07-11T08:31:50.975Z,100395.80
2018-07-11T08:34:27.489Z,100388.45
2018-07-11T08:39:09.988Z,100392.11
2018-07-11T08:43:36.058Z,100389.13
2018-07-11T08:46:58.526Z,100385.56
2018-07-11T08:52:00.871Z,100391.47
2018-07-11T08:54:26.389Z,100395.50
2018-07-11T08:59:00.304Z,100398.10
2018-07-11T09:03:27.371Z,100400.89
2018-07-11T09:06:01.877Z,100403.72
2018-07-11T09:08:28.828Z,100406.30
2018-07-11T09:12:54.091Z,100404.00
2018-07-11T09:17:23.028Z,100422.47
2018-07-11T09:20:00.807Z,100423.76
2018-07-11T09:23:26.803Z,100423.22
2018-07-11T09:25:32.147Z,100424.23
2018-07-11T09:27:37.417Z,100426.00
2018-07-11T09:29:43.485Z,100428.19
2018-07-11T09:31:48.859Z,100433.59
2018-07-11T09:33:54.140Z,100434.36
2018-07-11T09:35:59.499Z,100437.69
2018-07-11T09:38:04.918Z,100435.55
2018-07-11T09:40:10.291Z,100435.27
2018-07-11T09:42:15.733Z,100441.02
2018-07-11T09:44:21.780Z,100445.67
2018-07-11T09:46:27.319Z,100446.83
2018-07-11T09:48:32.789Z,100444.37
2018-07-11T09:50:38.147Z,100445.02
2018-07-11T09:52:43.552Z,100445.59
2018-07-11T09:54:48.974Z,100442.06
2018-07-11T09:56:54.388Z,100444.41
2018-07-11T09:58:59.935Z,100442.30
2018-07-11T10:01:10.341Z,100439.07
2018-07-11T10:03:15.826Z,100434.45
2018-07-11T10:05:21.279Z,100433.84
2018-07-11T10:07:27.726Z,100437.64
2018-07-11T10:09:33.097Z,100435.56
2018-07-11T10:11:38.431Z,100429.45
2018-07-11T10:13:43.786Z,100430.99
2018-07-11T10:15:49.178Z,100429.66
2018-07-11T10:17:54.579Z,100437.55
2018-07-11T10:20:00.074Z,100436.21
2018-07-11T10:22:05.391Z,100429.77
2018-07-11T10:24:10.850Z,100432.95
2018-07-11T10:26:16.176Z,100434.85
2018-07-11T10:28:21.896Z,100429.84
2018-07-11T10:30:27.204Z,100432.59
2018-07-11T10:32:32.592Z,100437.09
2018-07-11T10:34:38.149Z,100432.82
2018-07-11T10:36:43.532Z,100427.54
2018-07-11T10:38:48.908Z,100422.82
2018-07-11T10:40:54.344Z,100419.89
2018-07-11T10:42:59.751Z,100425.12
2018-07-11T10:45:05.158Z,100423.91
2018-07-11T10:47:13.484Z,100422.86
2018-07-11T10:49:18.560Z,100425.67
2018-07-11T10:51:23.827Z,100426.59
2018-07-11T10:53:29.222Z,100425.31
2018-07-11T10:55:34.597Z,100432.86
2018-07-11T10:57:40.082Z,100424.34
2018-07-11T10:59:45.413Z,100425.05
2018-07-11T11:01:51.290Z,100424.98
2018-07-11T11:03:57.015Z,100426.87
2018-07-11T11:06:02.419Z,100427.50
2018-07-11T11:08:07.850Z,100423.71
2018-07-11T11:10:13.204Z,100428.70
2018-07-11T11:12:18.562Z,100427.79
2018-07-11T11:14:24.014Z,100427.50
2018-07-11T11:16:29.043Z,100436.12
2018-07-11T11:18:34.350Z,100431.31
2018-07-11T11:20:39.769Z,100434.13
2018-07-11T11:22:45.163Z,100433.64
2018-07-11T11:24:50.659Z,100428.97
2018-07-11T11:26:57.013Z,100426.22
2018-07-11T11:29:02.384Z,100432.61
2018-07-11T11:31:07.783Z,100431.70
2018-07-11T11:33:13.300Z,100430.16
2018-07-11T11:35:18.369Z,100426.84
2018-07-11T11:37:23.676Z,100422.69
2018-07-11T11:39:29.070Z,100424.25
2018-07-11T11:41:34.612Z,100428.58
2018-07-11T11:43:39.948Z,100424.48
2018-07-11T11:45:45.321Z,100429.98
2018-07-11T11:47:54.708Z,100431.77
2018-07-11T11:50:00.094Z,100428.16
2018-07-11T11:52:05.498Z,100422.13
2018-07-11T11:54:10.927Z,100429.38
2018-07-11T11:56:16.309Z,100427.84
2018-07-11T11:58:21.773Z,100422.19
2018-07-11T12:00:27.169Z,100420.84
2018-07-11T12:02:32.510Z,100421.97
2018-07-11T12:04:37.949Z,100417.80
2018-07-11T12:06:43.302Z,100419.81
2018-07-11T12:08:48.679Z,100417.67
2018-07-11T12:10:54.096Z,100423.74
2018-07-11T12:12:59.422Z,100422.41
2018-07-11T12:15:05.740Z,100423.87
2018-07-11T12:17:11.106Z,100425.39
2018-07-11T12:19:16.492Z,100421.33
2018-07-11T12:21:21.846Z,100422.73
2018-07-11T12:23:33.742Z,100422.61
2018-07-11T12:25:54.692Z,100422.45
2018-07-11T12:28:00.058Z,100415.26
2018-07-11T12:30:05.431Z,100416.18
2018-07-11T12:32:10.859Z,100413.67
2018-07-11T12:34:16.321Z,100420.02
2018-07-11T12:36:21.680Z,100410.59
2018-07-11T12:38:27.253Z,100413.20
2018-07-11T12:40:33.852Z,100405.75
2018-07-11T12:42:39.399Z,100411.67
2018-07-11T12:44:44.806Z,100411.33
2018-07-11T12:46:50.006Z,100406.88
2018-07-11T12:49:00.397Z,100409.13
2018-07-11T12:51:05.802Z,100406.14
2018-07-11T12:53:11.189Z,100401.06
2018-07-11T12:55:16.634Z,100408.03
2018-07-11T12:57:22.070Z,100405.27
2018-07-11T12:59:27.472Z,100400.19
2018-07-11T13:01:33.055Z,100397.06
2018-07-11T13:03:38.616Z,100398.45
2018-07-11T13:05:44.183Z,100398.53
2018-07-11T13:07:49.772Z,100401.08
2018-07-11T13:09:55.138Z,100404.80
2018-07-11T13:12:00.933Z,100403.09
2018-07-11T13:14:06.333Z,100396.52
2018-07-11T13:16:11.738Z,100398.53
2018-07-11T13:18:17.263Z,100397.81
2018-07-11T13:20:22.705Z,100392.19
2018-07-11T13:22:28.120Z,100393.09
2018-07-11T13:24:33.418Z,100394.64
2018-07-11T13:26:38.806Z,100392.59
2018-07-11T13:28:44.146Z,100389.63
2018-07-11T13:30:49.598Z,100385.16
2018-07-11T13:32:54.873Z,100384.45
2018-07-11T13:35:00.241Z,100383.42
2018-07-11T13:37:05.647Z,100383.12
2018-07-11T13:39:21.225Z,100384.28
2018-07-11T13:41:26.512Z,100385.77
2018-07-11T13:43:31.934Z,100385.00
2018-07-11T13:45:37.339Z,100379.09
2018-07-11T13:47:42.739Z,100380.31
2018-07-11T13:49:48.217Z,100373.78
2018-07-11T13:51:53.648Z,100381.42
2018-07-11T13:53:59.110Z,100383.82
2018-07-11T13:56:04.549Z,100380.38
2018-07-11T13:58:10.653Z,100374.52
2018-07-11T14:00:16.064Z,100376.80
2018-07-11T14:02:21.497Z,100371.98
2018-07-11T14:04:26.987Z,100370.47
2018-07-11T14:06:32.369Z,100371.95
2018-07-11T14:08:37.856Z,100376.36
2018-07-11T14:10:43.261Z,100382.03
2018-07-11T14:12:48.860Z,100381.44
2018-07-11T14:14:54.364Z,100374.23
2018-07-11T14:16:59.804Z,100370.26
2018-07-11T14:19:05.265Z,100365.42
2018-07-11T14:21:10.682Z,100365.92
2018-07-11T14:23:26.625Z,100373.64
2018-07-11T14:25:32.614Z,100371.35
2018-07-11T14:27:45.559Z,100369.24
2018-07-11T14:29:51.048Z,100368.46
2018-07-11T14:31:59.626Z,100368.53
2018-07-11T14:34:07.479Z,100364.33
2018-07-11T14:36:12.962Z,100375.23
2018-07-11T14:38:18.344Z,100373.55
2018-07-11T14:40:24.233Z,100367.19
2018-07-11T14:42:29.691Z,100363.34
2018-07-11T14:44:35.058Z,100359.67
2018-07-11T14:46:40.551Z,100368.11
2018-07-11T14:48:45.991Z,100366.97
2018-07-11T14:50:51.608Z,100372.98
2018-07-11T14:52:57.984Z,100364.19
2018-07-11T14:55:03.567Z,100363.41
2018-07-11T14:57:09.037Z,100373.09
2018-07-11T14:59:14.511Z,100370.16
2018-07-11T15:01:19.932Z,100372.94
2018-07-11T15:03:25.356Z,100378.40
2018-07-11T15:05:30.754Z,100378.32
2018-07-11T15:07:36.146Z,100374.39
2018-07-11T15:09:41.550Z,100378.02
2018-07-11T15:11:46.949Z,100382.17
2018-07-11T15:13:52.919Z,100379.28
2018-07-11T15:15:57.992Z,100377.66
2018-07-11T15:18:03.343Z,100379.94
2018-07-11T15:20:08.831Z,100380.50
2018-07-11T15:22:14.295Z,100375.42
2018-07-11T15:24:19.728Z,100378.42
2018-07-11T15:26:26.073Z,100376.81
2018-07-11T15:28:31.763Z,100372.58
2018-07-11T15:30:37.227Z,100378.25
2018-07-11T15:32:42.722Z,100375.52
2018-07-11T15:34:48.144Z,100374.67
2018-07-11T15:36:53.697Z,100377.49
2018-07-11T15:38:58.941Z,100376.16
2018-07-11T15:41:04.561Z,100367.17
2018-07-11T15:43:10.226Z,100381.02
2018-07-11T15:45:15.681Z,100379.66
2018-07-11T15:47:22.844Z,100373.18
2018-07-11T15:49:28.385Z,100382.67
2018-07-11T15:51:33.985Z,100373.55
2018-07-11T15:53:39.578Z,100372.98
2018-07-11T15:55:45.008Z,100375.94
2018-07-11T15:57:54.703Z,100376.88
2018-07-11T16:00:13.687Z,100373.48
2018-07-11T16:02:19.435Z,100376.03
2018-07-11T16:04:29.917Z,100374.48
2018-07-11T16:06:35.427Z,100376.80
2018-07-11T16:08:51.838Z,100378.14
2018-07-11T16:11:01.977Z,100377.92
2018-07-11T16:13:07.287Z,100374.67
2018-07-11T16:15:12.730Z,100374.13
2018-07-11T16:17:18.244Z,100372.48
2018-07-11T16:19:23.733Z,100379.48
2018-07-11T16:21:29.169Z,100379.25
2018-07-11T16:23:34.740Z,100381.20
2018-07-11T16:25:41.471Z,100377.00
2018-07-11T16:27:46.876Z,100385.36
2018-07-11T16:29:52.411Z,100390.47
2018-07-11T16:31:57.993Z,100388.38
2018-07-11T16:34:03.570Z,100385.80
2018-07-11T16:36:09.025Z,100383.07
2018-07-11T16:38:14.420Z,100385.89
2018-07-11T16:40:20.447Z,100379.36
2018-07-11T16:42:25.922Z,100382.31
2018-07-11T16:44:31.651Z,100379.05
2018-07-11T16:46:37.124Z,100381.02
2018-07-11T16:48:42.551Z,100384.41
2018-07-11T16:50:48.047Z,100383.26
2018-07-11T16:52:54.021Z,100386.08
2018-07-11T16:54:59.779Z,100388.12
2018-07-11T16:57:07.287Z,100392.01
2018-07-11T16:59:15.549Z,100385.17
2018-07-11T17:01:24.799Z,100390.45
2018-07-11T17:03:30.064Z,100394.12
2018-07-11T17:05:48.093Z,100393.98
2018-07-11T17:07:59.560Z,100390.53
2018-07-11T17:10:05.798Z,100391.56
2018-07-11T17:12:13.695Z,100398.66
2018-07-11T17:14:21.126Z,100386.91
2018-07-11T17:17:06.931Z,100394.38
2018-07-11T17:19:16.075Z,100393.09
2018-07-11T17:21:52.485Z,100394.78
2018-07-11T17:24:08.788Z,100388.57
2018-07-11T17:26:14.182Z,100398.14
2018-07-11T17:28:19.603Z,100399.34
2018-07-11T17:30:25.104Z,100400.82
2018-07-11T17:32:31.627Z,100400.63
2018-07-11T17:34:39.507Z,100402.69
2018-07-11T17:36:45.131Z,100399.30
2018-07-11T17:38:50.649Z,100399.87
2018-07-11T17:40:56.834Z,100406.58
2018-07-11T17:43:02.214Z,100406.62
2018-07-11T17:45:19.952Z,100408.17
2018-07-11T17:47:25.771Z,100406.91
2018-07-11T17:49:39.837Z,100411.59
2018-07-11T17:52:16.153Z,100408.06
2018-07-11T17:54:21.636Z,100406.31
2018-07-11T17:57:05.574Z,100406.58
2018-07-11T17:59:12.512Z,100407.43
2018-07-11T18:01:18.099Z,100408.28
2018-07-11T18:03:47.630Z,100404.83
2018-07-11T18:06:04.520Z,100412.58
2018-07-11T18:08:12.104Z,100412.88
2018-07-11T18:10:33.123Z,100422.61
2018-07-11T18:13:50.864Z,100419.94
2018-07-11T18:16:23.848Z,100422.39
2018-07-11T18:18:43.937Z,100417.46
2018-07-11T18:21:13.352Z,100416.42
2018-07-11T18:23:45.633Z,100417.53
2018-07-11T18:26:12.362Z,100421.55
2018-07-11T18:29:35.040Z,100412.64
2018-07-11T18:34:28.283Z,100409.77
2018-07-11T18:36:46.262Z,100407.94
2018-07-11T18:39:32.484Z,100409.38
2018-07-11T18:41:48.732Z,100408.94
2018-07-11T18:45:01.578Z,100404.13
2018-07-11T18:47:21.516Z,100400.64
2018-07-11T18:49:42.467Z,100403.64
2018-07-11T18:52:09.944Z,100408.45
2018-07-11T18:54:27.428Z,100406.83
2018-07-11T18:57:04.003Z,100405.69
2018-07-11T18:59:26.011Z,100408.21
2018-07-11T19:03:16.483Z,100408.77
2018-07-11T19:06:42.301Z,100406.02
2018-07-11T19:09:03.569Z,100407.91
2018-07-11T19:11:21.979Z,100408.34
2018-07-11T19:13:33.834Z,100406.77
2018-07-11T19:15:46.453Z,100406.21
2018-07-11T19:18:14.120Z,100411.27
2018-07-11T19:20:34.367Z,100408.57
2018-07-11T19:24:58.962Z,100413.38
2018-07-11T19:27:50.923Z,100413.38
2018-07-11T19:30:08.319Z,100412.02
2018-07-11T19:32:37.454Z,100410.77
2018-07-11T19:37:07.040Z,100417.97
2018-07-11T19:39:41.854Z,100425.02
2018-07-11T19:42:03.708Z,100427.72
2018-07-11T19:44:28.343Z,100432.82
2018-07-11T19:49:03.567Z,100436.62
2018-07-11T19:52:26.229Z,100432.77
2018-07-11T19:54:45.162Z,100441.74
2018-07-11T19:56:50.656Z,100440.17
2018-07-11T19:58:56.134Z,100433.49
2018-07-11T20:01:01.653Z,100433.13
2018-07-11T20:03:07.020Z,100435.80
2018-07-11T20:05:12.422Z,100434.95
2018-07-11T20:07:17.951Z,100438.95
2018-07-11T20:09:23.384Z,100441.63
2018-07-11T20:11:29.346Z,100447.54
2018-07-11T20:13:34.779Z,100449.23
2018-07-11T20:15:40.298Z,100443.53
2018-07-11T20:17:45.729Z,100439.89
2018-07-11T20:19:51.225Z,100447.14
2018-07-11T20:21:56.791Z,100440.22
2018-07-11T20:24:02.088Z,100443.47
2018-07-11T20:26:07.799Z,100434.20
2018-07-11T20:28:13.185Z,100441.13
2018-07-11T20:30:18.611Z,100438.82
2018-07-11T20:32:24.039Z,100442.34
2018-07-11T20:34:29.405Z,100439.67
2018-07-11T20:36:34.833Z,100447.69
2018-07-11T20:38:40.539Z,100452.78
2018-07-11T20:40:45.900Z,100442.47
2018-07-11T20:42:51.829Z,100442.34
2018-07-11T20:44:58.781Z,100442.83
2018-07-11T20:47:04.891Z,100445.62
2018-07-11T20:49:15.373Z,100438.45
2018-07-11T20:51:20.797Z,100439.55
